Time;durP1;ratioP1;P1;durP2;ratioP2;P2;SDS_P1;SDS_P2;PMS_P1;PMS_P2;Temp;Humidity;BMP_temperature;BMP_pressure;BME280_temperature;BME280_humidity;BME280_pressure;Samples;Min_cycle;Max_cycle;Signal;HPM_P1;HPM_P2
2022/04/27 00:00:37;;;;;;;5.05;2.85;;;9.50;53.10;;;;;;4773009;30;20056;-74
2022/04/27 00:03:05;;;;;;;4.22;2.55;;;9.50;53.20;;;;;;4773640;30;20056;-74
2022/04/27 00:05:32;;;;;;;4.50;3.40;;;9.40;53.10;;;;;;4773534;30;20048;-74
2022/04/27 00:07:58;;;;;;;4.57;3.33;;;9.50;53.20;;;;;;4773453;30;20048;-74
2022/04/27 00:10:24;;;;;;;5.45;2.90;;;9.40;53.30;;;;;;4772123;30;20047;-74
2022/04/27 00:12:50;;;;;;;5.80;3.20;;;9.30;53.20;;;;;;4773663;30;20043;-74
2022/04/27 00:15:17;;;;;;;3.83;3.10;;;9.30;53.30;;;;;;4773459;30;20059;-74
2022/04/27 00:17:42;;;;;;;4.18;3.08;;;9.30;53.30;;;;;;4773513;30;20054;-74
2022/04/27 00:20:09;;;;;;;4.80;2.70;;;9.20;53.30;;;;;;4773282;30;20051;-73
2022/04/27 00:22:36;;;;;;;6.38;3.03;;;9.20;53.30;;;;;;4772113;30;20147;-74
2022/04/27 00:25:03;;;;;;;4.50;3.10;;;9.20;53.40;;;;;;4772878;30;20126;-74
2022/04/27 00:27:30;;;;;;;4.85;3.13;;;9.20;53.40;;;;;;4773140;30;20135;-75
2022/04/27 00:29:56;;;;;;;5.57;3.88;;;9.10;53.80;;;;;;4772067;30;20055;-75
2022/04/27 00:32:22;;;;;;;4.93;3.30;;;9.10;53.40;;;;;;4772984;30;20047;-74
2022/04/27 00:34:48;;;;;;;4.95;3.42;;;9.10;53.50;;;;;;4772517;30;20047;-74
2022/04/27 00:37:14;;;;;;;6.32;3.70;;;9.10;53.60;;;;;;4773191;30;20451;-74
2022/04/27 00:39:40;;;;;;;6.57;3.47;;;9.00;53.50;;;;;;4772869;30;20046;-74
2022/04/27 00:42:31;;;;;;;4.47;3.72;;;9.00;53.60;;;;;;4771730;30;20044;-74
2022/04/27 00:44:57;;;;;;;4.80;3.97;;;8.90;53.80;;;;;;4769254;30;20406;-74
2022/04/27 00:47:23;;;;;;;5.28;3.60;;;8.90;53.60;;;;;;4772669;30;20048;-74
2022/04/27 00:49:51;;;;;;;4.55;3.75;;;8.80;53.60;;;;;;4772857;30;20554;-74
2022/04/27 00:52:18;;;;;;;5.53;3.55;;;8.80;53.70;;;;;;4772670;30;20123;-74
2022/04/27 00:54:48;;;;;;;5.63;3.58;;;8.80;53.90;;;;;;4772649;30;20105;-74
2022/04/27 00:57:14;;;;;;;6.93;4.10;;;8.80;53.90;;;;;;4772816;30;20055;-74
2022/04/27 00:59:41;;;;;;;6.18;3.08;;;8.80;54.00;;;;;;4771337;30;20349;-74
2022/04/27 01:02:07;;;;;;;5.38;3.47;;;8.70;54.10;;;;;;4772705;30;20078;-74
2022/04/27 01:04:33;;;;;;;5.68;3.70;;;8.70;54.10;;;;;;4772544;30;20400;-73
2022/04/27 01:06:59;;;;;;;6.28;3.78;;;8.70;54.20;;;;;;4772492;30;20086;-74
2022/04/27 01:09:26;;;;;;;5.95;4.43;;;8.70;54.30;;;;;;4772393;30;20047;-73
2022/04/27 01:11:52;;;;;;;5.90;4.40;;;8.70;54.40;;;;;;4772614;30;20146;-73
2022/04/27 01:14:18;;;;;;;7.32;5.03;;;8.70;54.40;;;;;;4771161;30;20131;-73
2022/04/27 01:16:52;;;;;;;7.57;4.78;;;8.60;54.40;;;;;;4771126;30;20109;-74
2022/04/27 01:19:19;;;;;;;5.78;4.43;;;8.60;54.90;;;;;;4772207;30;20099;-74
2022/04/27 01:21:46;;;;;;;4.70;3.63;;;8.60;54.90;;;;;;4772183;30;20070;-74
2022/04/27 01:24:12;;;;;;;6.25;4.30;;;8.60;54.70;;;;;;4771686;30;20056;-74
2022/04/27 01:26:38;;;;;;;6.03;4.47;;;8.60;54.70;;;;;;4770899;30;20139;-74
2022/04/27 01:29:04;;;;;;;5.18;4.32;;;8.60;54.80;;;;;;4772169;30;20048;-75
2022/04/27 01:31:30;;;;;;;6.68;4.63;;;8.60;54.90;;;;;;4772091;30;20059;-74
2022/04/27 01:33:56;;;;;;;6.38;4.32;;;8.60;54.90;;;;;;4771912;30;20059;-75
2022/04/27 01:36:21;;;;;;;5.53;4.13;;;8.60;55.00;;;;;;4770365;30;20083;-74
2022/04/27 01:38:47;;;;;;;5.60;4.20;;;8.60;55.00;;;;;;4771816;30;20056;-74
2022/04/27 01:41:13;;;;;;;6.22;4.45;;;8.60;55.10;;;;;;4771935;30;20100;-74
2022/04/27 01:43:38;;;;;;;5.85;4.30;;;8.60;55.20;;;;;;4771834;30;20048;-74
2022/04/27 01:46:09;;;;;;;6.28;4.93;;;8.60;55.20;;;;;;4771608;30;20082;-74
2022/04/27 01:48:36;;;;;;;4.45;3.83;;;8.60;55.20;;;;;;4759678;30;20092;-75
2022/04/27 01:51:01;;;;;;;4.20;3.53;;;8.60;55.30;;;;;;4754110;30;20543;-75
2022/04/27 01:56:11;;;;;;;6.47;4.25;;;8.60;55.40;;;;;;4767822;30;20440;-73
2022/04/27 01:58:37;;;;;;;6.05;4.18;;;8.60;55.40;;;;;;4753802;30;20044;-74
2022/04/27 02:01:02;;;;;;;6.63;4.88;;;8.60;55.40;;;;;;4753905;30;20086;-73
2022/04/27 02:03:28;;;;;;;7.32;5.30;;;8.60;55.40;;;;;;4753573;30;20045;-73
2022/04/27 02:05:54;;;;;;;6.57;5.20;;;8.60;55.40;;;;;;4753705;30;20051;-73
2022/04/27 02:08:19;;;;;;;6.18;4.70;;;8.60;55.50;;;;;;4752793;30;20052;-73
2022/04/27 02:10:45;;;;;;;6.95;4.97;;;8.50;55.60;;;;;;4767299;30;20519;-74
2022/04/27 02:13:11;;;;;;;5.72;4.22;;;8.50;55.80;;;;;;4752705;30;20087;-74
2022/04/27 02:15:38;;;;;;;7.07;4.60;;;8.30;56.00;;;;;;4753475;30;20490;-74
2022/04/27 02:18:05;;;;;;;7.10;4.78;;;8.30;56.20;;;;;;4753342;30;20048;-74
2022/04/27 02:20:31;;;;;;;8.45;4.80;;;8.30;56.50;;;;;;4753556;30;20955;-74
2022/04/27 02:22:57;;;;;;;6.00;4.35;;;8.20;56.70;;;;;;4753675;30;20408;-74
2022/04/27 02:25:22;;;;;;;5.72;3.97;;;8.20;56.70;;;;;;4753665;30;20044;-74
2022/04/27 02:27:52;;;;;;;4.97;4.40;;;8.10;56.80;;;;;;4753619;30;20062;-74
2022/04/27 02:30:18;;;;;;;6.43;4.68;;;8.10;56.90;;;;;;4753432;30;20050;-74
2022/04/27 02:32:45;;;;;;;5.22;3.97;;;8.10;56.90;;;;;;4753436;30;20489;-74
2022/04/27 02:35:12;;;;;;;5.57;3.92;;;8.20;57.00;;;;;;4753337;30;20048;-74
2022/04/27 02:37:38;;;;;;;6.32;4.10;;;8.20;57.10;;;;;;4753536;30;20048;-74
2022/04/27 02:40:05;;;;;;;4.53;3.78;;;8.30;57.20;;;;;;4753417;30;20069;-74
2022/04/27 02:42:31;;;;;;;5.72;4.07;;;8.30;57.20;;;;;;4751969;30;20044;-73
2022/04/27 02:44:57;;;;;;;7.05;4.60;;;8.30;57.20;;;;;;4753262;30;20069;-73
2022/04/27 02:47:23;;;;;;;5.78;4.95;;;8.30;57.30;;;;;;4753029;30;20430;-73
2022/04/27 02:52:33;;;;;;;4.70;3.50;;;8.40;57.60;;;;;;4753356;30;20052;-74
2022/04/27 02:54:59;;;;;;;8.50;4.53;;;8.40;57.40;;;;;;4753075;30;20056;-74
2022/04/27 02:57:25;;;;;;;4.13;3.67;;;8.40;57.50;;;;;;4753163;30;20048;-74
2022/04/27 02:59:50;;;;;;;6.10;4.78;;;8.40;57.50;;;;;;4753186;30;20178;-75
2022/04/27 03:02:16;;;;;;;5.53;4.32;;;8.50;57.60;;;;;;4753830;30;20084;-74
2022/04/27 03:04:42;;;;;;;6.50;5.40;;;8.50;57.80;;;;;;4770813;30;20051;-73
2022/04/27 03:07:07;;;;;;;6.00;3.90;;;8.50;57.80;;;;;;4769815;30;20438;-73
2022/04/27 03:09:34;;;;;;;5.72;4.07;;;8.50;57.80;;;;;;4770893;30;20059;-74
2022/04/27 03:12:00;;;;;;;6.38;4.05;;;8.50;57.70;;;;;;4770917;30;20119;-73
2022/04/27 03:14:26;;;;;;;6.35;4.38;;;8.50;57.70;;;;;;4770813;30;20056;-73
2022/04/27 03:16:54;;;;;;;5.63;4.53;;;8.50;57.70;;;;;;4770573;30;20052;-74
2022/04/27 03:19:20;;;;;;;7.13;4.90;;;8.60;57.80;;;;;;4769296;30;20060;-74
2022/04/27 03:21:46;;;;;;;6.28;3.95;;;8.60;57.90;;;;;;4769440;30;20139;-73
2022/04/27 03:24:11;;;;;;;5.90;4.60;;;8.60;57.80;;;;;;4770790;30;20052;-73
2022/04/27 03:26:37;;;;;;;6.68;4.82;;;8.60;57.80;;;;;;4770543;30;20048;-73
2022/04/27 03:29:03;;;;;;;6.65;4.82;;;8.60;57.80;;;;;;4769339;30;20143;-73
2022/04/27 03:31:30;;;;;;;7.18;4.55;;;8.60;57.80;;;;;;4769614;30;20131;-74
2022/04/27 03:33:55;;;;;;;7.32;6.13;;;8.70;57.80;;;;;;4769325;30;20052;-73
2022/04/27 03:36:21;;;;;;;7.93;4.70;;;8.70;58.10;;;;;;4770458;30;20051;-74
2022/04/27 03:38:50;;;;;;;6.15;5.13;;;8.70;58.00;;;;;;4769546;30;20047;-74
2022/04/27 03:41:19;;;;;;;7.00;4.57;;;8.70;58.10;;;;;;4770412;30;20087;-73
2022/04/27 03:43:45;;;;;;;8.73;5.75;;;8.70;58.10;;;;;;4770442;30;20044;-74
2022/04/27 03:46:11;;;;;;;5.95;4.43;;;8.70;58.30;;;;;;4769085;30;20047;-73
2022/04/27 03:48:36;;;;;;;6.32;5.05;;;8.70;58.30;;;;;;4770362;30;20197;-74
2022/04/27 03:51:02;;;;;;;6.35;4.53;;;8.80;58.50;;;;;;4769741;30;20055;-74
2022/04/27 03:53:28;;;;;;;5.68;4.60;;;8.80;58.50;;;;;;4770508;30;20051;-74
2022/04/27 03:55:53;;;;;;;8.63;4.55;;;8.80;58.40;;;;;;4770448;30;20052;-74
2022/04/27 03:58:19;;;;;;;5.85;4.68;;;8.80;58.30;;;;;;4770336;30;20051;-74
2022/04/27 04:00:45;;;;;;;8.88;5.00;;;8.80;58.40;;;;;;4773116;30;20059;-74
2022/04/27 04:03:13;;;;;;;5.38;4.57;;;8.80;58.40;;;;;;4773691;30;20396;-74
2022/04/27 04:05:39;;;;;;;6.28;4.43;;;8.90;58.40;;;;;;4773572;30;20462;-74
2022/04/27 04:08:05;;;;;;;6.43;4.43;;;8.80;58.40;;;;;;4773735;30;20080;-75
2022/04/27 04:10:32;;;;;;;6.55;5.53;;;8.80;58.30;;;;;;4772355;30;20058;-75
2022/04/27 04:12:57;;;;;;;8.50;6.28;;;8.90;58.60;;;;;;4773408;30;20048;-75
2022/04/27 04:15:23;;;;;;;5.78;5.18;;;8.90;58.70;;;;;;4773491;30;20098;-74
2022/04/27 04:17:49;;;;;;;6.68;4.70;;;8.80;59.10;;;;;;4772065;30;20056;-74
2022/04/27 04:20:18;;;;;;;7.43;5.32;;;8.80;59.00;;;;;;4770005;30;20133;-74
2022/04/27 04:22:45;;;;;;;8.65;5.68;;;8.80;59.00;;;;;;4755930;29;20099;-74
2022/04/27 04:30:41;;;;;;;6.05;4.53;;;8.80;59.00;;;;;;4772135;30;20059;-74
2022/04/27 04:33:07;;;;;;;8.15;4.53;;;8.80;58.90;;;;;;4771862;30;20050;-74
2022/04/27 04:35:33;;;;;;;6.40;4.55;;;8.90;59.00;;;;;;4773040;30;20060;-74
2022/04/27 04:37:59;;;;;;;7.57;5.25;;;8.90;59.00;;;;;;4772935;30;20039;-75
2022/04/27 04:40:25;;;;;;;9.50;6.53;;;8.90;59.40;;;;;;4772247;30;20138;-74
2022/04/27 04:42:52;;;;;;;8.38;6.18;;;8.90;59.40;;;;;;4772104;30;20140;-74
2022/04/27 04:45:18;;;;;;;6.47;5.22;;;8.90;59.80;;;;;;4772799;30;20062;-74
2022/04/27 04:47:44;;;;;;;7.85;4.95;;;8.90;59.90;;;;;;4772629;30;20055;-74
2022/04/27 04:50:11;;;;;;;5.45;4.57;;;8.90;59.70;;;;;;4772884;30;20389;-74
2022/04/27 04:52:36;;;;;;;7.68;5.55;;;9.00;59.60;;;;;;4772882;30;20051;-74
2022/04/27 04:55:03;;;;;;;6.32;4.65;;;9.00;59.60;;;;;;4772538;30;20048;-75
2022/04/27 04:57:29;;;;;;;7.75;6.40;;;9.00;59.70;;;;;;4771460;30;20519;-74
2022/04/27 04:59:54;;;;;;;7.55;6.10;;;9.00;59.80;;;;;;4772482;30;20059;-74
2022/04/27 05:02:20;;;;;;;9.57;6.25;;;9.00;60.20;;;;;;4771486;30;20050;-74
2022/04/27 05:04:46;;;;;;;9.20;6.32;;;9.10;60.60;;;;;;4771429;30;20472;-74
2022/04/27 05:07:12;;;;;;;8.43;6.65;;;9.00;60.90;;;;;;4772829;30;20086;-75
2022/04/27 05:09:37;;;;;;;6.47;4.70;;;9.00;61.30;;;;;;4771510;30;20055;-73
2022/04/27 05:12:04;;;;;;;6.72;5.32;;;9.00;61.60;;;;;;4770865;30;20051;-73
2022/04/27 05:14:30;;;;;;;7.63;5.13;;;8.90;61.40;;;;;;4772377;30;20063;-73
2022/04/27 05:16:56;;;;;;;6.43;4.30;;;8.90;61.30;;;;;;4772165;30;20051;-72
2022/04/27 05:19:22;;;;;;;5.63;4.03;;;8.90;61.10;;;;;;4772272;30;20051;-72
2022/04/27 05:21:49;;;;;;;8.70;5.07;;;9.00;61.00;;;;;;4771091;30;20060;-73
2022/04/27 05:24:15;;;;;;;5.53;4.32;;;9.00;60.90;;;;;;4772104;30;20485;-73
2022/04/27 05:26:41;;;;;;;5.30;4.80;;;8.90;60.80;;;;;;4772278;30;20051;-74
2022/04/27 05:32:00;;;;;;;6.72;5.05;;;9.10;61.00;;;;;;4771979;30;20102;-73
2022/04/27 05:34:33;;;;;;;5.70;4.35;;;9.10;61.00;;;;;;4770838;30;20099;-73
2022/04/27 05:36:58;;;;;;;8.88;6.38;;;9.10;61.00;;;;;;4770745;30;20059;-73
2022/04/27 05:39:24;;;;;;;8.85;5.00;;;9.20;61.30;;;;;;4770740;30;20048;-73
2022/04/27 05:41:51;;;;;;;8.52;5.75;;;9.20;61.60;;;;;;4771904;30;20063;-74
2022/04/27 05:44:24;;;;;;;6.20;5.25;;;9.30;61.40;;;;;;4771734;30;20385;-74
2022/04/27 05:46:53;;;;;;;6.93;4.95;;;9.30;61.10;;;;;;4771712;30;20504;-74
2022/04/27 05:49:20;;;;;;;6.15;4.90;;;9.40;61.10;;;;;;4771660;30;20524;-73
2022/04/27 05:51:46;;;;;;;5.70;4.85;;;9.40;61.10;;;;;;4771796;30;20530;-73
2022/04/27 05:54:14;;;;;;;5.30;4.50;;;9.50;61.00;;;;;;4770697;30;20142;-74
2022/04/27 05:56:40;;;;;;;6.85;5.50;;;9.50;60.90;;;;;;4770466;30;20143;-73
2022/04/27 05:59:09;;;;;;;5.82;4.97;;;9.50;61.00;;;;;;4770615;30;20393;-74
2022/04/27 06:01:36;;;;;;;6.00;5.10;;;9.60;61.10;;;;;;4771769;30;20044;-74
2022/04/27 06:04:02;;;;;;;7.93;5.20;;;9.70;61.20;;;;;;4771642;30;20055;-74
2022/04/27 06:06:28;;;;;;;8.27;4.82;;;9.70;61.20;;;;;;4770460;30;20114;-74
2022/04/27 06:08:53;;;;;;;5.68;4.68;;;9.70;61.00;;;;;;4771510;30;20078;-74
2022/04/27 06:11:19;;;;;;;7.07;5.68;;;9.80;60.90;;;;;;4771446;30;20057;-74
2022/04/27 06:13:46;;;;;;;6.43;4.50;;;9.80;61.00;;;;;;4770010;30;20062;-74
2022/04/27 06:16:13;;;;;;;8.10;5.28;;;9.90;61.10;;;;;;4770025;30;20101;-74
2022/04/27 06:18:40;;;;;;;6.22;5.03;;;9.90;61.00;;;;;;4770796;30;20096;-73
2022/04/27 06:21:07;;;;;;;5.95;4.80;;;10.00;61.00;;;;;;4769885;30;20052;-73
2022/04/27 06:23:33;;;;;;;6.63;4.38;;;10.00;60.90;;;;;;4770844;30;20071;-73
2022/04/27 06:25:59;;;;;;;9.07;5.03;;;10.10;60.90;;;;;;4770025;30;20470;-74
2022/04/27 06:28:27;;;;;;;6.43;4.40;;;10.10;60.60;;;;;;4771170;30;20056;-74
2022/04/27 06:30:52;;;;;;;6.30;3.97;;;10.20;60.40;;;;;;4771198;30;20055;-74
2022/04/27 06:33:19;;;;;;;7.75;4.55;;;10.20;60.10;;;;;;4771004;30;20432;-74
2022/04/27 06:35:44;;;;;;;6.68;4.28;;;10.20;59.90;;;;;;4770601;30;20050;-74
2022/04/27 06:38:10;;;;;;;7.68;3.92;;;10.30;59.80;;;;;;4769953;30;20130;-74
2022/04/27 06:40:36;;;;;;;4.90;3.00;;;10.30;59.50;;;;;;4771078;30;20453;-74
2022/04/27 06:43:02;;;;;;;6.10;4.25;;;10.30;59.20;;;;;;4770556;30;20552;-74
2022/04/27 06:45:31;;;;;;;4.70;4.00;;;10.40;59.00;;;;;;4769720;30;20135;-74
2022/04/27 06:47:59;;;;;;;6.30;4.00;;;10.40;59.10;;;;;;4769849;30;20127;-73
2022/04/27 06:50:25;;;;;;;5.40;4.07;;;10.50;59.20;;;;;;4769875;30;20051;-73
2022/04/27 06:52:52;;;;;;;5.15;4.30;;;10.50;59.10;;;;;;4770905;30;20495;-74
2022/04/27 06:55:18;;;;;;;8.20;4.70;;;10.60;59.10;;;;;;4769660;30;20051;-73
2022/04/27 06:57:44;;;;;;;6.70;4.63;;;10.60;59.00;;;;;;4770750;30;20055;-74
2022/04/27 07:00:12;;;;;;;6.07;4.18;;;10.70;58.80;;;;;;4769541;30;20396;-73
2022/04/27 07:02:41;;;;;;;5.18;3.60;;;10.70;58.50;;;;;;4770705;30;20489;-73
2022/04/27 07:05:12;;;;;;;4.95;3.00;;;10.70;58.10;;;;;;4770680;30;20055;-74
2022/04/27 07:07:37;;;;;;;3.70;3.00;;;10.80;57.40;;;;;;4770727;30;20390;-74
2022/04/27 07:10:04;;;;;;;6.45;2.88;;;10.80;57.00;;;;;;4784323;30;20140;-74
2022/04/27 07:12:29;;;;;;;2.72;2.40;;;10.80;56.30;;;;;;4769504;30;20561;-74
2022/04/27 07:14:56;;;;;;;4.25;2.90;;;10.80;56.10;;;;;;4770566;30;20048;-74
2022/04/27 07:17:22;;;;;;;4.30;2.92;;;10.80;55.60;;;;;;4769739;30;20497;-74
2022/04/27 07:19:47;;;;;;;5.85;2.22;;;10.80;55.60;;;;;;4769519;30;20059;-74
2022/04/27 07:22:13;;;;;;;3.97;1.80;;;10.90;55.00;;;;;;4770315;30;20064;-74
2022/04/27 07:24:39;;;;;;;3.50;1.92;;;10.90;53.90;;;;;;4784205;30;20056;-74
2022/04/27 07:27:06;;;;;;;4.72;1.80;;;10.80;53.50;;;;;;4770550;30;20126;-74
2022/04/27 07:29:32;;;;;;;3.92;1.60;;;10.90;53.60;;;;;;4770429;30;20058;-73
2022/04/27 07:32:00;;;;;;;3.33;1.83;;;11.00;54.00;;;;;;4770473;30;20048;-73
2022/04/27 07:34:26;;;;;;;3.25;2.03;;;11.00;54.10;;;;;;4770270;30;20048;-73
2022/04/27 07:36:52;;;;;;;5.10;2.25;;;11.00;53.80;;;;;;4774274;30;20044;-74
2022/04/27 07:39:17;;;;;;;5.15;1.80;;;11.10;53.50;;;;;;4773905;30;20484;-74
2022/04/27 07:41:45;;;;;;;2.50;1.50;;;11.10;52.80;;;;;;4773833;30;20056;-74
2022/04/27 07:44:11;;;;;;;4.50;1.60;;;11.20;52.90;;;;;;4772336;30;20071;-74
2022/04/27 07:46:37;;;;;;;3.22;1.50;;;11.20;53.30;;;;;;4773125;30;20075;-74
2022/04/27 07:49:03;;;;;;;3.72;1.42;;;11.30;52.90;;;;;;4773891;30;20453;-74
2022/04/27 07:51:28;;;;;;;3.33;1.38;;;11.30;52.20;;;;;;4773650;30;20071;-73
2022/04/27 07:53:54;;;;;;;6.05;1.65;;;11.40;51.10;;;;;;4772587;30;20394;-73
2022/04/27 07:56:20;;;;;;;3.90;1.50;;;11.40;50.70;;;;;;4773490;30;20047;-73
2022/04/27 07:58:45;;;;;;;4.68;1.67;;;11.40;50.60;;;;;;4773260;30;20131;-73
2022/04/27 08:01:11;;;;;;;3.30;1.63;;;11.40;49.90;;;;;;4773399;30;20400;-73
2022/04/27 08:03:37;;;;;;;4.68;1.52;;;11.50;49.70;;;;;;4773117;30;20100;-73
2022/04/27 08:06:04;;;;;;;5.05;1.80;;;11.50;49.90;;;;;;4772031;30;20048;-74
2022/04/27 08:08:31;;;;;;;3.10;1.17;;;11.50;49.90;;;;;;4773407;30;20055;-74
2022/04/27 08:10:57;;;;;;;4.97;1.50;;;11.50;50.10;;;;;;4773322;30;20083;-74
2022/04/27 08:13:22;;;;;;;3.88;1.48;;;11.50;50.20;;;;;;4773288;30;20055;-75
2022/04/27 08:15:48;;;;;;;3.25;1.45;;;11.60;50.60;;;;;;4772575;30;20058;-74
2022/04/27 08:18:14;;;;;;;5.00;1.75;;;11.60;50.30;;;;;;4771920;30;20051;-74
2022/04/27 08:23:29;;;;;;;4.03;1.42;;;11.60;49.70;;;;;;4772840;30;20075;-73
2022/04/27 08:25:57;;;;;;;3.92;1.65;;;11.60;49.40;;;;;;4772857;30;20544;-74
2022/04/27 08:28:23;;;;;;;4.95;1.70;;;11.60;49.60;;;;;;4756855;30;20067;-73
2022/04/27 08:30:50;;;;;;;3.45;1.38;;;11.70;49.90;;;;;;4773241;30;20588;-75
2022/04/27 08:33:18;;;;;;;2.80;1.25;;;11.70;50.10;;;;;;4773026;30;20055;-75
2022/04/27 08:35:45;;;;;;;4.68;1.40;;;11.80;50.50;;;;;;4773136;30;20489;-75
2022/04/27 08:38:11;;;;;;;7.18;2.22;;;11.90;50.20;;;;;;4771810;30;20074;-74
2022/04/27 08:40:45;;;;;;;3.85;1.40;;;12.00;50.00;;;;;;4772755;30;20044;-74
2022/04/27 08:43:11;;;;;;;5.97;1.80;;;12.00;50.00;;;;;;4772597;30;20522;-74
2022/04/27 08:45:38;;;;;;;6.72;2.20;;;12.10;49.90;;;;;;4772720;30;20401;-75
2022/04/27 08:48:05;;;;;;;5.57;2.15;;;12.10;49.60;;;;;;4772461;30;20085;-75
2022/04/27 08:50:30;;;;;;;6.50;2.35;;;12.20;50.00;;;;;;4771954;30;20126;-74
2022/04/27 08:52:56;;;;;;;4.97;1.75;;;12.30;50.00;;;;;;4772613;30;20122;-73
2022/04/27 08:55:23;;;;;;;3.90;1.35;;;12.30;49.30;;;;;;4771977;30;20047;-74
2022/04/27 08:57:49;;;;;;;9.57;1.83;;;12.30;49.10;;;;;;4772753;30;20140;-74
2022/04/27 09:00:16;;;;;;;4.22;1.70;;;12.40;49.80;;;;;;4774368;30;20164;-75
2022/04/27 09:02:42;;;;;;;4.10;1.92;;;12.50;49.90;;;;;;4773050;30;20086;-75
2022/04/27 09:05:19;;;;;;;3.40;1.88;;;12.50;50.00;;;;;;4771527;30;20051;-74
2022/04/27 09:07:46;;;;;;;3.05;1.40;;;12.60;50.00;;;;;;4771301;30;20094;-74
2022/04/27 09:10:16;;;;;;;4.78;1.95;;;12.70;50.10;;;;;;4771065;30;20079;-75
2022/04/27 09:12:46;;;;;;;4.03;1.70;;;12.80;49.90;;;;;;4771148;30;20063;-76
2022/04/27 09:15:16;;;;;;;5.22;1.70;;;12.80;50.10;;;;;;4772496;30;20108;-74
2022/04/27 09:23:41;;;;;;;3.63;1.73;;;13.10;50.40;;;;;;4771860;30;19942;-74
2022/04/27 09:26:18;;;;;;;4.47;1.92;;;13.20;49.90;;;;;;4756487;30;20056;-75
2022/04/27 09:28:49;;;;;;;3.55;1.60;;;13.20;49.30;;;;;;4771949;30;20067;-75
2022/04/27 09:31:32;;;;;;;3.47;1.60;;;13.20;49.20;;;;;;4771857;30;20083;-74
2022/04/27 09:36:53;;;;;;;3.83;1.88;;;13.30;49.00;;;;;;4770644;30;20070;-74
2022/04/27 09:39:24;;;;;;;4.57;2.13;;;13.40;48.80;;;;;;4771787;30;20119;-75
2022/04/27 09:41:50;;;;;;;4.03;2.75;;;13.40;48.80;;;;;;4770492;30;20155;-74
2022/04/27 09:44:30;;;;;;;5.00;2.65;;;13.50;49.00;;;;;;4770398;30;20485;-75
2022/04/27 09:46:56;;;;;;;5.20;2.70;;;13.50;48.70;;;;;;4771593;30;20083;-75
2022/04/27 09:49:21;;;;;;;4.93;2.83;;;13.50;48.60;;;;;;4771698;30;20097;-74
2022/04/27 09:51:52;;;;;;;6.82;2.85;;;13.60;48.00;;;;;;4771600;30;20540;-74
2022/04/27 09:54:28;;;;;;;10.05;2.97;;;13.50;48.40;;;;;;4771522;30;20065;-74
2022/04/27 09:56:56;;;;;;;4.50;2.13;;;13.60;48.70;;;;;;4769997;30;20485;-74
2022/04/27 09:59:30;;;;;;;4.88;2.20;;;13.50;49.00;;;;;;4770249;30;20059;-76
2022/04/27 10:01:58;;;;;;;5.15;2.30;;;13.60;49.10;;;;;;4770387;30;20144;-74
2022/04/27 10:04:29;;;;;;;3.25;2.15;;;13.60;49.00;;;;;;4770523;30;20535;-73
2022/04/27 10:07:03;;;;;;;7.38;2.63;;;13.70;49.20;;;;;;4770203;30;20488;-73
2022/04/27 10:09:30;;;;;;;6.40;2.72;;;13.70;48.70;;;;;;4771280;30;20538;-73
2022/04/27 10:12:03;;;;;;;5.85;2.65;;;13.70;48.90;;;;;;4770251;30;20092;-74
2022/04/27 10:14:29;;;;;;;6.10;2.50;;;13.80;48.60;;;;;;4771194;30;20129;-74
2022/04/27 10:16:56;;;;;;;4.68;2.60;;;13.90;48.20;;;;;;4770095;30;20088;-75
2022/04/27 10:19:23;;;;;;;6.95;2.70;;;13.90;47.50;;;;;;4769872;30;20429;-74
2022/04/27 10:22:08;;;;;;;5.13;2.22;;;13.90;47.10;;;;;;4771287;30;20052;-74
2022/04/27 10:24:34;;;;;;;5.20;2.55;;;14.00;47.70;;;;;;4770839;30;20188;-74
2022/04/27 10:27:21;;;;;;;6.15;2.08;;;14.10;48.00;;;;;;4770050;30;20143;-74
2022/04/27 10:30:01;;;;;;;5.78;2.20;;;14.20;47.80;;;;;;4770981;30;20126;-74
2022/04/27 10:32:36;;;;;;;5.05;1.90;;;14.20;47.70;;;;;;4771045;30;20489;-74
2022/04/27 10:35:21;;;;;;;5.90;2.65;;;14.30;48.00;;;;;;4769924;30;20047;-75
2022/04/27 10:37:54;;;;;;;7.85;2.60;;;14.30;47.90;;;;;;4769739;30;20135;-76
2022/04/27 10:40:26;;;;;;;5.20;2.17;;;14.40;47.60;;;;;;4770792;30;20051;-75
2022/04/27 10:42:52;;;;;;;5.85;2.42;;;14.40;47.20;;;;;;4770277;30;20052;-75
2022/04/27 10:45:24;;;;;;;5.07;2.08;;;14.50;47.40;;;;;;4769757;30;20062;-75
2022/04/27 10:47:50;;;;;;;5.63;2.42;;;14.60;47.60;;;;;;4770710;30;20056;-75
2022/04/27 10:50:18;;;;;;;5.20;1.98;;;14.60;47.50;;;;;;4770824;30;20054;-74
2022/04/27 10:52:50;;;;;;;8.65;2.50;;;14.70;47.50;;;;;;4769606;30;20063;-74
2022/04/27 10:55:44;;;;;;;6.15;1.92;;;14.80;46.50;;;;;;4769407;30;20043;-74
2022/04/27 10:58:14;;;;;;;4.10;1.83;;;14.80;47.00;;;;;;4767215;30;20066;-74
2022/04/27 11:01:01;;;;;;;6.05;2.17;;;14.90;47.20;;;;;;4769665;30;20047;-75
2022/04/27 11:03:28;;;;;;;5.50;2.00;;;14.90;47.00;;;;;;4769856;30;20091;-75
2022/04/27 11:05:59;;;;;;;6.00;1.92;;;14.90;46.50;;;;;;4769625;30;20488;-74
2022/04/27 11:08:47;;;;;;;5.32;2.10;;;15.00;46.70;;;;;;4769587;30;20044;-75
2022/04/27 11:11:16;;;;;;;6.70;2.22;;;15.10;46.80;;;;;;4787771;30;20576;-74
2022/04/27 11:13:42;;;;;;;8.50;3.03;;;15.00;46.50;;;;;;4774250;30;20059;-74
2022/04/27 11:16:10;;;;;;;7.75;2.40;;;15.00;46.60;;;;;;4774093;30;20472;-74
2022/04/27 11:18:56;;;;;;;8.75;2.78;;;15.00;46.60;;;;;;4773171;30;20063;-74
2022/04/27 11:21:24;;;;;;;6.68;2.78;;;15.00;46.80;;;;;;4773008;30;20481;-74
2022/04/27 11:23:49;;;;;;;6.82;2.40;;;15.00;46.80;;;;;;4774150;30;20493;-74
2022/04/27 11:26:15;;;;;;;6.53;2.58;;;15.00;46.90;;;;;;4773038;30;20081;-74
2022/04/27 11:28:45;;;;;;;8.40;2.72;;;15.00;46.70;;;;;;4773166;30;20134;-75
2022/04/27 11:31:12;;;;;;;8.50;2.95;;;15.00;46.60;;;;;;4774244;30;20059;-73
2022/04/27 11:33:40;;;;;;;7.82;2.70;;;14.90;46.60;;;;;;4774256;30;20118;-74
2022/04/27 11:36:25;;;;;;;8.48;2.83;;;14.90;46.30;;;;;;4773143;30;20043;-75
2022/04/27 11:38:52;;;;;;;8.15;2.50;;;14.80;46.20;;;;;;4773949;30;20103;-74
2022/04/27 11:41:20;;;;;;;7.45;2.75;;;14.80;46.20;;;;;;4773856;30;20097;-74
2022/04/27 11:43:46;;;;;;;8.73;2.55;;;14.80;45.60;;;;;;4774008;30;20069;-74
2022/04/27 11:46:12;;;;;;;6.20;2.25;;;14.70;46.10;;;;;;4772687;30;20497;-74
2022/04/27 11:48:38;;;;;;;8.88;2.67;;;14.70;46.80;;;;;;4772706;30;20052;-75
2022/04/27 11:51:06;;;;;;;7.45;2.60;;;14.70;47.30;;;;;;4774058;30;20054;-75
2022/04/27 11:53:46;;;;;;;8.07;2.92;;;14.70;47.20;;;;;;4772573;30;20067;-75
2022/04/27 11:56:16;;;;;;;8.77;3.08;;;14.70;46.60;;;;;;4764402;30;20123;-75
2022/04/27 11:58:45;;;;;;;7.90;2.50;;;14.70;47.00;;;;;;4755782;30;20501;-75
2022/04/27 12:01:19;;;;;;;6.32;2.78;;;14.70;46.50;;;;;;4756096;30;20131;-75
2022/04/27 12:03:44;;;;;;;7.53;1.90;;;14.70;46.60;;;;;;4755705;30;20508;-74
2022/04/27 12:06:21;;;;;;;4.13;2.10;;;14.70;47.00;;;;;;4755810;30;20044;-75
2022/04/27 12:08:47;;;;;;;7.25;2.08;;;14.70;47.30;;;;;;4755700;30;20060;-75
2022/04/27 12:11:23;;;;;;;6.03;2.72;;;14.70;47.10;;;;;;4755681;30;20121;-75
2022/04/27 12:13:51;;;;;;;3.85;1.90;;;14.80;47.20;;;;;;4754541;30;20056;-72
2022/04/27 12:16:17;;;;;;;7.78;2.45;;;14.80;47.30;;;;;;4755513;30;20056;-74
2022/04/27 12:18:54;;;;;;;7.00;2.47;;;14.90;47.40;;;;;;4754191;30;20070;-73
2022/04/27 12:21:28;;;;;;;6.72;2.80;;;14.90;47.60;;;;;;4753859;30;20052;-73
2022/04/27 12:23:57;;;;;;;7.38;2.50;;;14.90;47.30;;;;;;4755209;30;20072;-74
2022/04/27 12:26:24;;;;;;;6.28;2.55;;;15.00;46.80;;;;;;4754558;30;20438;-75
2022/04/27 12:28:50;;;;;;;8.85;3.05;;;15.00;46.70;;;;;;4755394;30;20059;-75
2022/04/27 12:31:18;;;;;;;7.63;2.33;;;15.00;46.30;;;;;;4754047;30;20043;-73
2022/04/27 12:33:49;;;;;;;5.78;2.03;;;15.10;45.30;;;;;;4754291;30;20082;-73
2022/04/27 12:39:23;;;;;;;4.35;2.22;;;15.10;46.00;;;;;;4756132;30;20048;-74
2022/04/27 12:41:50;;;;;;;6.25;2.10;;;15.10;45.90;;;;;;4771675;30;20063;-74
2022/04/27 12:44:21;;;;;;;6.53;2.20;;;15.10;46.10;;;;;;4772720;30;20098;-74
2022/04/27 12:47:00;;;;;;;6.47;2.45;;;15.10;46.40;;;;;;4772827;30;20059;-74
2022/04/27 12:49:30;;;;;;;6.20;2.70;;;15.10;46.40;;;;;;4771596;30;20059;-75
2022/04/27 12:52:12;;;;;;;5.28;2.30;;;15.10;46.30;;;;;;4772805;30;20086;-74
2022/04/27 12:54:38;;;;;;;5.85;2.22;;;15.20;46.50;;;;;;4772723;30;20489;-74
2022/04/27 12:57:03;;;;;;;8.13;2.80;;;15.30;46.50;;;;;;4771927;30;20056;-74
2022/04/27 12:59:30;;;;;;;6.95;2.47;;;15.30;46.30;;;;;;4772891;30;20102;-74
2022/04/27 13:02:02;;;;;;;6.50;2.10;;;15.30;45.90;;;;;;4772679;30;20524;-74
2022/04/27 13:04:28;;;;;;;6.10;2.00;;;15.40;46.10;;;;;;4771299;30;20063;-74
2022/04/27 13:06:54;;;;;;;8.48;2.97;;;15.40;46.00;;;;;;4772710;30;20100;-74
2022/04/27 13:12:04;;;;;;;7.63;2.47;;;15.40;45.60;;;;;;4772421;30;20516;-74
2022/04/27 13:14:31;;;;;;;6.88;2.55;;;15.40;45.80;;;;;;4771113;30;20409;-74
2022/04/27 13:16:56;;;;;;;6.22;2.58;;;15.40;45.90;;;;;;4772314;30;20062;-74
2022/04/27 13:19:23;;;;;;;10.00;3.05;;;15.40;45.90;;;;;;4771084;30;20131;-75
2022/04/27 13:21:49;;;;;;;5.40;2.25;;;15.40;46.20;;;;;;4772312;30;20052;-75
2022/04/27 13:24:16;;;;;;;9.05;2.53;;;15.40;46.10;;;;;;4771845;30;20052;-73